ASN logo
Last updated: 19 May 2019
Status:Preliminary
Date:Wednesday 24 April 2019
Time:14:42
Type:Silhouette image of generic C551 model; specific model in this crash may look slightly different
Cessna 551 Citation II/SP
Operator:private
Registration: D-IADV
C/n / msn: 551-0552
First flight: 1987
Crew:Fatalities: 0 / Occupants: 2
Passengers:Fatalities: 0 / Occupants: 0
Total:Fatalities: 0 / Occupants: 2
Aircraft damage: Substantial
Location:Siegen-Siegerland Airport (SGE) (   Germany)
Phase: Landing (LDG)
Nature:Training
Departure airport:?
Destination airport:Siegen-Siegerland Airport (SGE/EDGS), Germany
Narrative:
The Cessna 551 Citation II/SP jet was practicing approaches and landings at Siegerland Airport, Germany.
According to local authorities, the aircraft touched down short of runway 13, causing the main landing gear to collapse. A fuel leak from the left wing caused a fire as the aircraft slid to a stop on the runway. The fire was apparently put out quickly.

Sources:
» Fahrwerk beim Landeanflug abgerissen: Kleiner Jet fängt am Siegerland-Flughafen Feuer (wa.de, 24-4-2019)
» Video – Cessna geht nach Bruchlandung in Flammen auf (wirsiegen.de, 24-4-2019)
» Flightradar24

METAR Weather report:
11:20 UTC / 13:20 local time:
EDGS 241120Z 22006KT 110V240 9999 FEW048 19/07 Q1003

12:20 UTC / 14:20 local time:
EDGS 241220Z 22006KT 100V240 CAVOK 21/08 Q1003

13:20 UTC / 15:20 local time:
EDGS 241320Z 15007KT 110V200 CAVOK 20/08 Q1002


Photos

photo of Cessna-551-Citation-II-SP-D-IADV
accident date: 24-04-2019
type: Cessna 551 Citation II/SP
registration: D-IADV
 

Video, social media

This information is not presented as the Flight Safety Foundation or the Aviation Safety Network’s opinion as to the cause of the accident. It is preliminary and is based on the facts as they are known at this time.
languages: languages

Share